createdAt,value
2023-02-06T00:00:54.715Z,77.30
2023-02-06T00:03:42.360Z,73.57
2023-02-06T00:06:10.245Z,69.13
2023-02-06T00:08:38.119Z,70.93
2023-02-06T00:11:07.568Z,61.70
2023-02-06T00:13:36.565Z,61.17
2023-02-06T00:16:05.478Z,63.73
2023-02-06T00:18:33.359Z,69.10
2023-02-06T00:21:01.337Z,70.40
2023-02-06T00:23:28.954Z,67.43
2023-02-06T00:25:56.918Z,68.00
2023-02-06T00:28:24.553Z,76.53
2023-02-06T00:30:52.526Z,69.37
2023-02-06T00:33:21.281Z,68.07
2023-02-06T00:35:49.316Z,72.97
2023-02-06T00:38:17.050Z,64.37
2023-02-06T00:40:45.689Z,69.13
2023-02-06T00:43:13.372Z,67.37
2023-02-06T00:45:41.311Z,73.57
2023-02-06T00:48:09.324Z,74.83
2023-02-06T00:50:38.282Z,70.13
2023-02-06T00:53:05.980Z,74.63
2023-02-06T00:55:34.168Z,74.63
2023-02-06T00:58:02.365Z,81.53
2023-02-06T01:00:30.470Z,75.53
2023-02-06T01:02:59.332Z,72.83
2023-02-06T01:05:28.012Z,78.80
2023-02-06T01:07:56.275Z,81.47
2023-02-06T01:10:26.157Z,82.20
2023-02-06T01:12:53.895Z,91.43
2023-02-06T01:15:21.854Z,85.20
2023-02-06T01:17:49.427Z,80.90
2023-02-06T01:20:17.474Z,84.20
2023-02-06T01:22:45.195Z,79.23
2023-02-06T01:25:13.319Z,84.27
2023-02-06T01:27:40.926Z,90.20
2023-02-06T01:30:09.241Z,76.87
2023-02-06T01:32:38.099Z,78.10
2023-02-06T01:35:07.083Z,80.47
2023-02-06T01:37:34.985Z,79.07
2023-02-06T01:40:03.315Z,79.73
2023-02-06T01:42:31.132Z,83.17
2023-02-06T01:45:27.272Z,78.63
2023-02-06T01:47:58.359Z,83.07
2023-02-06T01:50:26.322Z,80.50
2023-02-06T01:52:53.974Z,85.03
2023-02-06T01:55:21.914Z,76.43
2023-02-06T01:57:49.876Z,77.70
2023-02-06T02:00:18.110Z,77.30
2023-02-06T02:02:48.520Z,89.17
2023-02-06T02:05:18.193Z,85.03
2023-02-06T02:07:49.018Z,79.17
2023-02-06T02:10:16.987Z,82.03
2023-02-06T02:12:44.659Z,78.17
2023-02-06T02:15:12.833Z,81.00
2023-02-06T02:17:46.631Z,79.53
2023-02-06T02:20:40.848Z,85.77
2023-02-06T02:23:08.716Z,74.90
2023-02-06T02:25:42.642Z,81.80
2023-02-06T02:28:13.193Z,86.13
2023-02-06T02:30:41.971Z,77.13
2023-02-06T02:33:32.929Z,84.53
2023-02-06T02:36:04.393Z,84.53
2023-02-06T02:38:39.774Z,92.00
2023-02-06T02:41:12.452Z,80.83
2023-02-06T02:43:45.243Z,89.50
2023-02-06T02:46:16.054Z,80.80
2023-02-06T02:48:45.055Z,76.93
2023-02-06T02:51:13.179Z,80.97
2023-02-06T02:53:41.931Z,80.80
2023-02-06T02:56:28.442Z,70.00
2023-02-06T02:59:10.569Z,90.57
2023-02-06T03:01:58.977Z,73.37
2023-02-06T03:04:29.734Z,81.90
2023-02-06T03:07:10.179Z,77.23
2023-02-06T03:10:02.896Z,82.37
2023-02-06T03:12:31.032Z,74.40
2023-02-06T03:15:14.290Z,72.77
2023-02-06T03:17:45.362Z,76.10
2023-02-06T03:20:13.506Z,75.60
2023-02-06T03:22:42.910Z,76.80
2023-02-06T03:25:16.873Z,71.67
2023-02-06T03:27:46.417Z,79.20
2023-02-06T03:30:14.949Z,87.03
2023-02-06T03:32:45.588Z,77.00
2023-02-06T03:35:15.037Z,74.90
2023-02-06T03:37:43.624Z,85.70
2023-02-06T03:40:11.969Z,83.30
2023-02-06T03:42:41.629Z,82.63
2023-02-06T03:45:17.702Z,81.77
2023-02-06T03:47:47.363Z,78.33
2023-02-06T03:50:15.878Z,85.10
2023-02-06T03:52:48.986Z,86.23
2023-02-06T03:55:22.816Z,85.23
2023-02-06T03:57:53.326Z,85.43
2023-02-06T04:00:21.687Z,75.33
2023-02-06T04:02:49.949Z,70.87
2023-02-06T04:05:18.949Z,84.93
2023-02-06T04:07:46.964Z,78.00
2023-02-06T04:10:14.657Z,87.13
2023-02-06T04:12:42.620Z,82.10
2023-02-06T04:15:12.437Z,90.50
2023-02-06T04:17:57.513Z,98.17
2023-02-06T04:20:26.821Z,86.23
2023-02-06T04:22:54.723Z,82.20
2023-02-06T04:25:22.625Z,84.87
2023-02-06T04:27:51.934Z,84.13
2023-02-06T04:30:19.772Z,83.10
2023-02-06T04:32:47.757Z,96.90
2023-02-06T04:35:15.468Z,84.63
2023-02-06T04:37:43.489Z,84.67
2023-02-06T04:40:11.527Z,81.07
2023-02-06T04:42:39.502Z,86.07
2023-02-06T04:45:07.500Z,84.03
2023-02-06T04:47:35.436Z,77.40
2023-02-06T04:50:03.794Z,74.90
2023-02-06T04:52:31.729Z,69.47
2023-02-06T04:54:59.374Z,74.63
2023-02-06T04:57:27.299Z,82.13
2023-02-06T04:59:54.928Z,81.00
2023-02-06T05:02:22.831Z,86.47
2023-02-06T05:04:50.575Z,80.80
2023-02-06T05:07:18.718Z,81.17
2023-02-06T05:09:46.516Z,82.10
2023-02-06T05:12:14.514Z,78.90
2023-02-06T05:14:42.148Z,83.67
2023-02-06T05:17:10.160Z,78.03
2023-02-06T05:19:37.766Z,79.03
2023-02-06T05:22:05.710Z,73.93
2023-02-06T05:24:33.308Z,74.90
2023-02-06T05:27:01.281Z,78.07
2023-02-06T05:29:28.993Z,75.33
2023-02-06T05:31:57.001Z,72.43
2023-02-06T05:34:24.932Z,74.53
2023-02-06T05:36:52.950Z,78.67
2023-02-06T05:39:20.525Z,70.87
2023-02-06T05:41:48.519Z,76.90
2023-02-06T05:44:16.329Z,76.70
2023-02-06T05:46:44.313Z,79.93
2023-02-06T05:49:12.069Z,79.17
2023-02-06T05:51:40.060Z,71.33
2023-02-06T05:54:07.705Z,66.33
2023-02-06T05:56:35.603Z,74.83
2023-02-06T05:59:03.254Z,72.07
2023-02-06T06:01:33.110Z,71.87
2023-02-06T06:04:00.894Z,77.43
2023-02-06T06:06:28.858Z,71.07
2023-02-06T06:08:56.355Z,73.23
2023-02-06T06:11:24.631Z,72.93
2023-02-06T06:13:52.473Z,63.57
2023-02-06T06:16:20.407Z,69.27
2023-02-06T06:18:48.159Z,70.87
2023-02-06T06:21:16.034Z,67.03
2023-02-06T06:23:43.705Z,66.10
2023-02-06T06:26:11.592Z,71.27
2023-02-06T06:28:39.382Z,68.63
2023-02-06T06:31:08.556Z,70.13
2023-02-06T06:33:36.180Z,77.77
2023-02-06T06:36:04.258Z,71.60
2023-02-06T06:38:31.936Z,72.63
2023-02-06T06:40:59.825Z,77.67
2023-02-06T06:43:27.420Z,125.57
2023-02-06T06:45:55.401Z,178.97
2023-02-06T06:48:23.268Z,81.80
2023-02-06T06:50:51.407Z,66.33
2023-02-06T06:53:18.978Z,70.20
2023-02-06T06:55:46.849Z,71.60
2023-02-06T06:58:14.556Z,76.53
2023-02-06T07:00:42.838Z,69.60
2023-02-06T07:03:11.879Z,70.90
2023-02-06T07:05:39.905Z,62.40
2023-02-06T07:08:07.850Z,74.60
2023-02-06T07:10:35.864Z,75.07
2023-02-06T07:13:03.624Z,75.00
2023-02-06T07:15:31.656Z,75.27
2023-02-06T07:17:59.219Z,73.03
2023-02-06T07:20:27.064Z,67.63
2023-02-06T07:22:54.942Z,68.17
2023-02-06T07:25:22.894Z,68.00
2023-02-06T07:27:50.555Z,68.03
2023-02-06T07:30:18.494Z,73.67
2023-02-06T07:32:46.164Z,65.43
2023-02-06T07:35:15.346Z,74.67
2023-02-06T07:37:43.031Z,70.60
2023-02-06T07:40:11.278Z,66.47
2023-02-06T07:42:40.017Z,73.00
2023-02-06T07:45:17.196Z,75.67
2023-02-06T07:47:45.396Z,93.57
2023-02-06T07:50:13.395Z,130.43
2023-02-06T07:52:40.959Z,92.80
2023-02-06T07:55:10.256Z,80.30
2023-02-06T07:57:37.990Z,92.03
2023-02-06T08:00:06.186Z,92.47
2023-02-06T08:02:39.766Z,110.50
2023-02-06T08:05:08.243Z,226.17
2023-02-06T08:07:35.805Z,265.00
2023-02-06T08:10:03.649Z,299.33
2023-02-06T08:12:31.233Z,230.93
2023-02-06T08:14:59.058Z,164.73
2023-02-06T08:17:27.163Z,141.30
2023-02-06T08:19:55.314Z,104.07
2023-02-06T08:22:23.171Z,82.80
2023-02-06T08:24:51.190Z,77.10
2023-02-06T08:27:18.834Z,79.63
2023-02-06T08:29:46.913Z,94.33
2023-02-06T08:32:14.493Z,70.90
2023-02-06T08:34:42.476Z,91.00
2023-02-06T08:37:10.107Z,111.60
2023-02-06T08:39:38.483Z,116.73
2023-02-06T08:42:06.160Z,88.27
2023-02-06T08:44:34.164Z,101.30
2023-02-06T08:47:10.065Z,82.63
2023-02-06T08:49:39.016Z,72.63
2023-02-06T08:52:06.832Z,52.60
2023-02-06T08:54:36.344Z,57.17
2023-02-06T08:57:06.798Z,52.23
2023-02-06T08:59:35.052Z,49.83
2023-02-06T09:02:03.762Z,43.53
2023-02-06T09:04:32.093Z,50.83
2023-02-06T09:06:59.757Z,42.73
2023-02-06T09:09:27.667Z,43.53
2023-02-06T09:11:56.284Z,39.13
2023-02-06T09:14:24.314Z,44.93
2023-02-06T09:16:51.978Z,39.67
2023-02-06T09:19:19.871Z,36.83
2023-02-06T09:21:53.965Z,34.40
2023-02-06T09:24:23.839Z,34.63
2023-02-06T09:26:59.964Z,33.23
2023-02-06T09:29:29.475Z,32.63
2023-02-06T09:31:59.921Z,42.33
2023-02-06T09:34:28.129Z,39.17
2023-02-06T09:36:56.988Z,59.27
2023-02-06T09:39:25.043Z,37.23
2023-02-06T09:41:54.389Z,36.93
2023-02-06T09:44:28.053Z,49.90
2023-02-06T09:47:13.048Z,35.30
2023-02-06T09:49:41.047Z,47.67
2023-02-06T09:52:08.788Z,36.47
2023-02-06T09:54:45.285Z,40.10
2023-02-06T09:57:15.964Z,40.67
2023-02-06T09:59:58.594Z,39.17
2023-02-06T10:02:32.574Z,45.83
2023-02-06T10:05:04.836Z,59.10
2023-02-06T10:07:44.422Z,54.83
2023-02-06T10:10:12.328Z,52.33
2023-02-06T10:12:42.443Z,43.70
2023-02-06T10:15:10.329Z,35.27
2023-02-06T10:17:42.301Z,51.03
2023-02-06T10:20:15.444Z,48.60
2023-02-06T10:23:06.468Z,50.43
2023-02-06T10:25:37.829Z,34.27
2023-02-06T10:28:27.426Z,39.70
2023-02-06T10:31:15.273Z,27.63
2023-02-06T10:34:05.347Z,41.47
2023-02-06T10:36:54.560Z,40.87
2023-02-06T10:39:43.332Z,30.37
2023-02-06T10:42:29.662Z,32.20
2023-02-06T10:45:28.152Z,22.87
2023-02-06T10:48:34.078Z,26.77
2023-02-06T10:51:07.315Z,38.80
2023-02-06T10:53:39.399Z,31.15
2023-02-06T10:56:14.192Z,26.90
2023-02-06T10:59:28.368Z,42.38
2023-02-06T11:02:38.437Z,37.60
2023-02-06T11:05:09.106Z,32.03
2023-02-06T11:07:43.659Z,41.80
2023-02-06T11:10:17.347Z,34.08
2023-02-06T11:12:51.407Z,35.42
2023-02-06T11:15:36.366Z,33.17
2023-02-06T11:18:06.663Z,36.25
2023-02-06T11:20:37.140Z,37.03
2023-02-06T11:23:15.054Z,35.65
2023-02-06T11:25:43.692Z,40.25
2023-02-06T11:28:19.030Z,41.42
2023-02-06T11:31:02.905Z,40.95
2023-02-06T11:33:48.008Z,48.80
2023-02-06T11:36:23.543Z,88.43
2023-02-06T11:38:56.114Z,54.53
2023-02-06T11:41:23.778Z,57.17
2023-02-06T11:43:53.912Z,41.08
2023-02-06T11:46:26.976Z,34.33
2023-02-06T11:49:00.583Z,29.40
2023-02-06T11:51:47.061Z,23.33
2023-02-06T11:54:40.568Z,26.40
2023-02-06T11:57:27.096Z,27.40
2023-02-06T11:59:57.730Z,27.20
2023-02-06T12:02:27.949Z,24.92
2023-02-06T12:05:15.608Z,18.92
2023-02-06T12:08:10.221Z,20.83
2023-02-06T12:10:48.355Z,25.25
2023-02-06T12:13:24.496Z,20.65
2023-02-06T12:15:55.089Z,37.80
2023-02-06T12:18:27.530Z,36.45
2023-02-06T12:21:03.603Z,36.85
2023-02-06T12:23:45.079Z,38.35
2023-02-06T12:26:18.443Z,36.88
2023-02-06T12:29:09.733Z,46.88
2023-02-06T12:31:59.090Z,96.40
2023-02-06T12:34:54.632Z,46.60
2023-02-06T12:37:32.002Z,33.25
2023-02-06T12:40:00.654Z,24.38
2023-02-06T12:42:47.409Z,17.08
2023-02-06T12:45:28.385Z,16.08
2023-02-06T12:48:21.489Z,22.17
2023-02-06T12:51:16.318Z,27.50
2023-02-06T12:53:46.842Z,22.15
2023-02-06T12:56:38.957Z,26.20
2023-02-06T12:59:30.536Z,38.97
2023-02-06T13:02:13.442Z,43.05
2023-02-06T13:04:41.001Z,36.28
2023-02-06T13:07:12.392Z,57.75
2023-02-06T13:09:51.508Z,29.83
2023-02-06T13:12:25.128Z,31.95
2023-02-06T13:15:20.352Z,17.35
2023-02-06T13:17:50.220Z,17.73
2023-02-06T13:20:20.354Z,16.85
2023-02-06T13:22:51.206Z,31.98
2023-02-06T13:25:30.668Z,23.40
2023-02-06T13:28:27.589Z,38.72
2023-02-06T13:31:03.688Z,35.60
2023-02-06T13:33:53.042Z,45.85
2023-02-06T13:36:41.743Z,41.28
2023-02-06T13:39:28.203Z,24.00
2023-02-06T13:41:58.077Z,20.40
2023-02-06T13:44:31.075Z,18.73
2023-02-06T13:47:01.551Z,22.33
2023-02-06T13:49:58.650Z,16.38
2023-02-06T13:52:57.925Z,23.13
2023-02-06T13:56:02.937Z,24.00
2023-02-06T13:58:36.585Z,21.85
2023-02-06T14:01:12.123Z,20.95
2023-02-06T14:03:44.767Z,24.92
2023-02-06T14:06:27.188Z,27.48
2023-02-06T14:09:30.589Z,22.25
2023-02-06T14:12:34.472Z,17.70
2023-02-06T14:15:07.517Z,28.02
2023-02-06T14:17:46.710Z,23.90
2023-02-06T14:20:33.860Z,22.77
2023-02-06T14:23:16.271Z,20.05
2023-02-06T14:26:20.121Z,36.70
2023-02-06T14:29:18.826Z,38.38
2023-02-06T14:32:14.393Z,38.22
2023-02-06T14:35:27.265Z,50.67
2023-02-06T14:38:10.053Z,69.15
2023-02-06T14:40:42.689Z,72.80
2023-02-06T14:43:21.733Z,100.53
2023-02-06T14:46:08.787Z,89.82
2023-02-06T14:48:49.614Z,64.95
2023-02-06T14:51:34.020Z,58.07
2023-02-06T14:54:07.451Z,68.80
2023-02-06T14:56:37.896Z,69.53
2023-02-06T14:59:15.864Z,82.90
2023-02-06T15:01:46.510Z,97.60
2023-02-06T15:04:16.264Z,122.50
2023-02-06T15:06:58.545Z,132.87
2023-02-06T15:09:33.354Z,173.93
2023-02-06T15:12:03.163Z,190.17
2023-02-06T15:14:35.644Z,176.67
2023-02-06T15:17:04.114Z,182.43
2023-02-06T15:19:33.787Z,185.67
2023-02-06T15:22:13.957Z,199.20
2023-02-06T15:24:47.714Z,175.47
2023-02-06T15:27:30.716Z,86.27
2023-02-06T15:29:59.050Z,86.73
2023-02-06T15:32:29.715Z,95.30
2023-02-06T15:34:58.145Z,74.53
2023-02-06T15:37:34.689Z,49.53
2023-02-06T15:40:07.715Z,52.40
2023-02-06T15:42:37.212Z,62.63
2023-02-06T15:45:05.756Z,57.13
2023-02-06T15:47:34.036Z,59.73
2023-02-06T15:50:01.834Z,50.20
2023-02-06T15:52:35.961Z,48.60
2023-02-06T15:55:05.033Z,50.57
2023-02-06T15:57:39.895Z,43.60
2023-02-06T16:00:40.254Z,44.83
2023-02-06T16:03:16.542Z,36.53
2023-02-06T16:05:44.816Z,34.80
2023-02-06T16:08:21.597Z,28.87
2023-02-06T16:11:30.394Z,30.47
2023-02-06T16:13:58.868Z,25.47
2023-02-06T16:16:29.906Z,22.57
2023-02-06T16:18:58.693Z,19.00
2023-02-06T16:21:31.025Z,20.37
2023-02-06T16:24:06.833Z,21.77
2023-02-06T16:26:48.487Z,25.90
2023-02-06T16:29:19.269Z,22.20
2023-02-06T16:31:56.455Z,22.03
2023-02-06T16:34:41.736Z,31.63
2023-02-06T16:37:14.086Z,33.27
2023-02-06T16:39:42.749Z,42.13
2023-02-06T16:42:18.647Z,28.77
2023-02-06T16:44:50.245Z,28.67
2023-02-06T16:47:20.049Z,25.37
2023-02-06T16:49:48.996Z,21.13
2023-02-06T16:52:18.746Z,19.20
2023-02-06T16:54:49.723Z,19.27
2023-02-06T16:57:20.995Z,17.43
2023-02-06T16:59:49.629Z,18.40
2023-02-06T17:02:17.956Z,21.93
2023-02-06T17:04:46.482Z,18.17
2023-02-06T17:07:19.258Z,18.30
2023-02-06T17:09:49.709Z,22.00
2023-02-06T17:12:19.329Z,20.40
2023-02-06T17:14:48.915Z,15.90
2023-02-06T17:17:21.130Z,18.10
2023-02-06T17:19:50.599Z,22.97
2023-02-06T17:22:19.106Z,21.03
2023-02-06T17:24:47.390Z,21.43
2023-02-06T17:27:18.593Z,20.90
2023-02-06T17:29:47.654Z,20.73
2023-02-06T17:32:16.480Z,23.23
2023-02-06T17:34:44.805Z,20.23
2023-02-06T17:37:20.940Z,24.23
2023-02-06T17:39:50.322Z,20.80
2023-02-06T17:42:18.232Z,21.53
2023-02-06T17:44:47.285Z,19.93
2023-02-06T17:47:15.182Z,19.87
2023-02-06T17:49:46.719Z,20.60
2023-02-06T17:52:14.693Z,22.83
2023-02-06T17:54:43.005Z,22.63
2023-02-06T17:57:13.923Z,20.07
2023-02-06T17:59:43.575Z,25.10
2023-02-06T18:02:14.960Z,25.23
2023-02-06T18:04:43.536Z,27.03
2023-02-06T18:07:12.424Z,28.30
2023-02-06T18:09:42.219Z,27.50
2023-02-06T18:12:11.056Z,25.63
2023-02-06T18:14:40.995Z,25.20
2023-02-06T18:17:09.680Z,22.93
2023-02-06T18:19:42.728Z,24.17
2023-02-06T18:22:15.072Z,30.07
2023-02-06T18:24:43.733Z,23.77
2023-02-06T18:27:12.216Z,20.77
2023-02-06T18:29:49.724Z,32.67
2023-02-06T18:32:19.195Z,34.97
2023-02-06T18:34:49.107Z,31.90
2023-02-06T18:37:18.100Z,30.30
2023-02-06T18:39:46.527Z,27.80
2023-02-06T18:42:33.098Z,27.50
2023-02-06T18:45:04.151Z,27.57
2023-02-06T18:47:32.444Z,28.43
2023-02-06T18:50:00.859Z,22.53
2023-02-06T18:52:29.472Z,22.93
2023-02-06T18:54:57.763Z,26.60
2023-02-06T18:57:25.584Z,36.10
2023-02-06T18:59:53.800Z,28.07
2023-02-06T19:02:21.722Z,47.27
2023-02-06T19:04:50.417Z,40.03
2023-02-06T19:07:18.965Z,26.90
2023-02-06T19:09:47.513Z,32.03
2023-02-06T19:12:15.701Z,25.77
2023-02-06T19:14:44.664Z,24.27
2023-02-06T19:17:12.992Z,25.60
2023-02-06T19:19:41.315Z,22.27
2023-02-06T19:22:09.422Z,23.00
2023-02-06T19:24:38.117Z,23.73
2023-02-06T19:27:06.513Z,27.70
2023-02-06T19:29:36.627Z,26.43
2023-02-06T19:32:07.901Z,25.97
2023-02-06T19:34:37.974Z,22.83
2023-02-06T19:37:07.621Z,27.33
2023-02-06T19:39:40.014Z,30.90
2023-02-06T19:42:10.368Z,24.87
2023-02-06T19:44:38.883Z,31.57
2023-02-06T19:47:06.738Z,25.03
2023-02-06T19:49:34.893Z,31.43
2023-02-06T19:52:03.337Z,35.87
2023-02-06T19:54:33.309Z,30.90
2023-02-06T19:57:01.612Z,35.80
2023-02-06T19:59:30.569Z,102.33
2023-02-06T20:02:01.618Z,69.87
2023-02-06T20:04:36.877Z,70.90
2023-02-06T20:07:06.089Z,47.33
2023-02-06T20:09:35.386Z,41.40
2023-02-06T20:12:03.760Z,35.73
2023-02-06T20:14:32.306Z,32.43
2023-02-06T20:17:00.437Z,31.50
2023-02-06T20:19:30.193Z,38.40
2023-02-06T20:22:00.869Z,47.83
2023-02-06T20:24:31.514Z,58.70
2023-02-06T20:27:03.508Z,69.50
2023-02-06T20:29:37.827Z,73.90
2023-02-06T20:32:06.913Z,75.87
2023-02-06T20:34:35.703Z,80.00
2023-02-06T20:37:05.110Z,71.07
2023-02-06T20:39:34.719Z,82.63
2023-02-06T20:42:02.943Z,73.53
2023-02-06T20:44:31.076Z,76.40
2023-02-06T20:46:59.031Z,71.53
2023-02-06T20:49:28.842Z,66.90
2023-02-06T20:51:57.384Z,78.43
2023-02-06T20:54:25.992Z,73.07
2023-02-06T20:56:54.072Z,81.33
2023-02-06T20:59:22.704Z,152.87
2023-02-06T21:01:50.408Z,99.57
2023-02-06T21:04:19.634Z,81.27
2023-02-06T21:06:50.903Z,73.30
2023-02-06T21:09:19.277Z,65.97
2023-02-06T21:11:50.281Z,79.47
2023-02-06T21:14:19.538Z,59.73
2023-02-06T21:16:48.590Z,84.97
2023-02-06T21:19:20.400Z,76.13
2023-02-06T21:21:49.580Z,70.00
2023-02-06T21:24:19.533Z,70.70
2023-02-06T21:26:48.743Z,59.60
2023-02-06T21:29:17.113Z,73.90
2023-02-06T21:31:47.610Z,75.10
2023-02-06T21:34:17.240Z,71.80
2023-02-06T21:36:45.760Z,70.57
2023-02-06T21:39:19.917Z,68.60
2023-02-06T21:41:52.035Z,66.77
2023-02-06T21:44:21.441Z,70.47
2023-02-06T21:46:49.644Z,72.70
2023-02-06T21:49:18.317Z,78.00
2023-02-06T21:51:45.890Z,72.60
2023-02-06T21:54:14.263Z,78.23
2023-02-06T21:56:42.074Z,72.70
2023-02-06T21:59:13.526Z,76.57
2023-02-06T22:01:41.455Z,81.63
2023-02-06T22:04:11.253Z,201.87
2023-02-06T22:06:39.757Z,95.37
2023-02-06T22:09:11.914Z,102.67
2023-02-06T22:11:40.187Z,95.27
2023-02-06T22:14:12.453Z,107.63
2023-02-06T22:16:41.342Z,195.40
2023-02-06T22:19:10.705Z,221.43
2023-02-06T22:21:38.387Z,207.63
2023-02-06T22:24:08.008Z,206.93
2023-02-06T22:26:38.744Z,201.43
2023-02-06T22:29:08.510Z,193.20
2023-02-06T22:31:37.209Z,166.73
2023-02-06T22:34:05.188Z,151.37
2023-02-06T22:36:33.476Z,142.83
2023-02-06T22:39:04.542Z,134.60
2023-02-06T22:41:32.408Z,131.57
2023-02-06T22:44:00.170Z,127.93
2023-02-06T22:46:30.840Z,122.90
2023-02-06T22:48:59.056Z,141.97
2023-02-06T22:51:27.184Z,149.60
2023-02-06T22:53:55.243Z,143.03
2023-02-06T22:56:26.890Z,185.10
2023-02-06T22:58:56.721Z,193.53
2023-02-06T23:01:25.720Z,168.33
2023-02-06T23:03:54.524Z,156.83
2023-02-06T23:06:22.585Z,157.93
2023-02-06T23:08:50.604Z,134.77
2023-02-06T23:11:18.333Z,147.40
2023-02-06T23:13:46.043Z,136.33
2023-02-06T23:16:13.885Z,144.87
2023-02-06T23:18:41.917Z,116.53
2023-02-06T23:21:12.297Z,112.63
2023-02-06T23:23:41.424Z,113.30
2023-02-06T23:26:12.124Z,105.70
2023-02-06T23:28:40.811Z,106.10
2023-02-06T23:31:09.631Z,116.57
2023-02-06T23:33:37.943Z,102.00
2023-02-06T23:36:08.701Z,105.20
2023-02-06T23:38:36.801Z,106.87
2023-02-06T23:41:17.012Z,113.53
2023-02-06T23:43:45.001Z,104.83
2023-02-06T23:46:13.211Z,109.17
2023-02-06T23:48:41.281Z,108.13
2023-02-06T23:51:08.975Z,104.83
2023-02-06T23:53:37.047Z,97.73
2023-02-06T23:56:15.084Z,104.33
2023-02-06T23:58:43.277Z,104.90
